sensor_id;sensor_type;location;lat;lon;timestamp;temperature;humidity
22635;DHT22;11484;50.858;4.384;2023-08-31T00:00:10;14.70;99.90
22635;DHT22;11484;50.858;4.384;2023-08-31T00:02:38;14.80;99.90
22635;DHT22;11484;50.858;4.384;2023-08-31T00:05:04;14.90;99.90
22635;DHT22;11484;50.858;4.384;2023-08-31T00:07:30;14.90;99.90
22635;DHT22;11484;50.858;4.384;2023-08-31T00:09:57;14.90;99.90
22635;DHT22;11484;50.858;4.384;2023-08-31T00:12:23;14.90;99.90
22635;DHT22;11484;50.858;4.384;2023-08-31T00:14:50;14.80;99.90
22635;DHT22;11484;50.858;4.384;2023-08-31T00:17:16;14.80;99.90
22635;DHT22;11484;50.858;4.384;2023-08-31T00:19:43;14.80;99.90
22635;DHT22;11484;50.858;4.384;2023-08-31T00:22:09;14.80;99.90
22635;DHT22;11484;50.858;4.384;2023-08-31T00:24:34;14.70;99.90
22635;DHT22;11484;50.858;4.384;2023-08-31T00:27:03;14.70;99.90
22635;DHT22;11484;50.858;4.384;2023-08-31T00:29:29;14.70;99.90
22635;DHT22;11484;50.858;4.384;2023-08-31T00:31:56;14.80;99.90
22635;DHT22;11484;50.858;4.384;2023-08-31T00:34:22;14.90;99.90
22635;DHT22;11484;50.858;4.384;2023-08-31T00:36:48;14.90;99.90
22635;DHT22;11484;50.858;4.384;2023-08-31T00:39:14;14.90;99.90
22635;DHT22;11484;50.858;4.384;2023-08-31T00:41:40;15.00;99.90
22635;DHT22;11484;50.858;4.384;2023-08-31T00:44:06;15.00;99.90
22635;DHT22;11484;50.858;4.384;2023-08-31T00:46:33;15.00;99.90
22635;DHT22;11484;50.858;4.384;2023-08-31T00:49:00;15.00;99.90
22635;DHT22;11484;50.858;4.384;2023-08-31T00:51:26;14.90;99.90
22635;DHT22;11484;50.858;4.384;2023-08-31T00:53:52;14.90;99.90
22635;DHT22;11484;50.858;4.384;2023-08-31T00:56:21;14.90;99.90
22635;DHT22;11484;50.858;4.384;2023-08-31T00:58:47;14.90;99.90
22635;DHT22;11484;50.858;4.384;2023-08-31T01:04:19;14.90;99.90
22635;DHT22;11484;50.858;4.384;2023-08-31T01:07:04;14.90;99.90
22635;DHT22;11484;50.858;4.384;2023-08-31T01:09:39;14.90;99.90
22635;DHT22;11484;50.858;4.384;2023-08-31T01:12:15;14.90;99.90
22635;DHT22;11484;50.858;4.384;2023-08-31T01:14:56;14.80;99.90
22635;DHT22;11484;50.858;4.384;2023-08-31T01:17:26;14.80;99.90
22635;DHT22;11484;50.858;4.384;2023-08-31T01:19:55;14.90;99.90
22635;DHT22;11484;50.858;4.384;2023-08-31T01:22:36;14.90;99.90
22635;DHT22;11484;50.858;4.384;2023-08-31T01:25:03;14.80;99.90
22635;DHT22;11484;50.858;4.384;2023-08-31T01:27:33;14.80;99.90
22635;DHT22;11484;50.858;4.384;2023-08-31T01:29:59;14.90;99.90
22635;DHT22;11484;50.858;4.384;2023-08-31T01:32:25;14.90;99.90
22635;DHT22;11484;50.858;4.384;2023-08-31T01:34:52;14.80;99.90
22635;DHT22;11484;50.858;4.384;2023-08-31T01:37:26;14.70;99.90
22635;DHT22;11484;50.858;4.384;2023-08-31T01:40:09;14.70;99.90
22635;DHT22;11484;50.858;4.384;2023-08-31T01:42:36;14.80;99.90
22635;DHT22;11484;50.858;4.384;2023-08-31T01:45:03;14.80;99.90
22635;DHT22;11484;50.858;4.384;2023-08-31T01:47:30;14.80;99.90
22635;DHT22;11484;50.858;4.384;2023-08-31T01:49:56;14.80;99.90
22635;DHT22;11484;50.858;4.384;2023-08-31T01:52:22;14.70;99.90
22635;DHT22;11484;50.858;4.384;2023-08-31T01:54:48;14.70;99.90
22635;DHT22;11484;50.858;4.384;2023-08-31T01:57:14;14.60;99.90
22635;DHT22;11484;50.858;4.384;2023-08-31T01:59:40;14.60;99.90
22635;DHT22;11484;50.858;4.384;2023-08-31T02:02:06;14.60;99.90
22635;DHT22;11484;50.858;4.384;2023-08-31T02:04:32;14.70;99.90
22635;DHT22;11484;50.858;4.384;2023-08-31T02:06:57;14.70;99.90
22635;DHT22;11484;50.858;4.384;2023-08-31T02:09:23;14.70;99.90
22635;DHT22;11484;50.858;4.384;2023-08-31T02:11:49;14.60;99.90
22635;DHT22;11484;50.858;4.384;2023-08-31T02:14:14;14.60;99.90
22635;DHT22;11484;50.858;4.384;2023-08-31T02:16:40;14.50;99.90
22635;DHT22;11484;50.858;4.384;2023-08-31T02:19:05;14.50;99.90
22635;DHT22;11484;50.858;4.384;2023-08-31T02:21:31;14.50;99.90
22635;DHT22;11484;50.858;4.384;2023-08-31T02:23:57;14.50;99.90
22635;DHT22;11484;50.858;4.384;2023-08-31T02:26:22;14.50;99.90
22635;DHT22;11484;50.858;4.384;2023-08-31T02:28:48;14.50;99.90
22635;DHT22;11484;50.858;4.384;2023-08-31T02:31:14;14.60;99.90
22635;DHT22;11484;50.858;4.384;2023-08-31T02:33:40;14.60;99.90
22635;DHT22;11484;50.858;4.384;2023-08-31T02:36:06;14.60;99.90
22635;DHT22;11484;50.858;4.384;2023-08-31T02:38:31;14.60;99.90
22635;DHT22;11484;50.858;4.384;2023-08-31T02:40:57;14.60;99.90
22635;DHT22;11484;50.858;4.384;2023-08-31T02:43:23;14.60;99.90
22635;DHT22;11484;50.858;4.384;2023-08-31T02:45:58;14.60;99.90
22635;DHT22;11484;50.858;4.384;2023-08-31T02:48:24;14.60;99.90
22635;DHT22;11484;50.858;4.384;2023-08-31T02:50:50;14.60;99.90
22635;DHT22;11484;50.858;4.384;2023-08-31T02:53:15;14.70;99.90
22635;DHT22;11484;50.858;4.384;2023-08-31T02:55:42;14.70;99.90
22635;DHT22;11484;50.858;4.384;2023-08-31T02:58:08;14.60;99.90
22635;DHT22;11484;50.858;4.384;2023-08-31T03:00:33;14.50;99.90
22635;DHT22;11484;50.858;4.384;2023-08-31T03:02:59;14.60;99.90
22635;DHT22;11484;50.858;4.384;2023-08-31T03:05:25;14.50;99.90
22635;DHT22;11484;50.858;4.384;2023-08-31T03:07:50;14.60;99.90
22635;DHT22;11484;50.858;4.384;2023-08-31T03:10:16;14.60;99.90
22635;DHT22;11484;50.858;4.384;2023-08-31T03:12:42;14.60;99.90
22635;DHT22;11484;50.858;4.384;2023-08-31T03:15:08;14.70;99.90
22635;DHT22;11484;50.858;4.384;2023-08-31T03:17:33;14.70;99.90
22635;DHT22;11484;50.858;4.384;2023-08-31T03:19:59;14.70;99.90
22635;DHT22;11484;50.858;4.384;2023-08-31T03:22:25;14.70;99.90
22635;DHT22;11484;50.858;4.384;2023-08-31T03:24:50;14.80;99.90
22635;DHT22;11484;50.858;4.384;2023-08-31T03:27:16;14.80;99.90
22635;DHT22;11484;50.858;4.384;2023-08-31T03:29:42;14.70;99.90
22635;DHT22;11484;50.858;4.384;2023-08-31T03:32:07;14.70;99.90
22635;DHT22;11484;50.858;4.384;2023-08-31T03:34:33;14.70;99.90
22635;DHT22;11484;50.858;4.384;2023-08-31T03:36:59;14.70;99.90
22635;DHT22;11484;50.858;4.384;2023-08-31T03:39:25;14.80;99.90
22635;DHT22;11484;50.858;4.384;2023-08-31T03:41:51;14.80;99.90
22635;DHT22;11484;50.858;4.384;2023-08-31T03:44:16;14.80;99.90
22635;DHT22;11484;50.858;4.384;2023-08-31T03:46:43;14.80;99.90
22635;DHT22;11484;50.858;4.384;2023-08-31T03:49:09;14.90;99.90
22635;DHT22;11484;50.858;4.384;2023-08-31T03:51:34;14.90;99.90
22635;DHT22;11484;50.858;4.384;2023-08-31T03:54:00;14.90;99.90
22635;DHT22;11484;50.858;4.384;2023-08-31T03:56:26;14.90;99.90
22635;DHT22;11484;50.858;4.384;2023-08-31T03:58:52;14.90;99.90
22635;DHT22;11484;50.858;4.384;2023-08-31T04:01:18;14.90;99.90
22635;DHT22;11484;50.858;4.384;2023-08-31T04:03:44;14.80;99.90
22635;DHT22;11484;50.858;4.384;2023-08-31T04:06:10;14.80;99.90
22635;DHT22;11484;50.858;4.384;2023-08-31T04:08:35;14.90;99.90
22635;DHT22;11484;50.858;4.384;2023-08-31T04:11:01;14.90;99.90
22635;DHT22;11484;50.858;4.384;2023-08-31T04:13:27;14.90;99.90
22635;DHT22;11484;50.858;4.384;2023-08-31T04:15:53;14.90;99.90
22635;DHT22;11484;50.858;4.384;2023-08-31T04:18:19;14.90;99.90
22635;DHT22;11484;50.858;4.384;2023-08-31T04:20:52;14.80;99.90
22635;DHT22;11484;50.858;4.384;2023-08-31T04:23:18;14.90;99.90
22635;DHT22;11484;50.858;4.384;2023-08-31T04:25:44;14.80;99.90
22635;DHT22;11484;50.858;4.384;2023-08-31T04:28:10;14.80;99.90
22635;DHT22;11484;50.858;4.384;2023-08-31T04:30:36;14.70;99.90
22635;DHT22;11484;50.858;4.384;2023-08-31T04:33:01;14.80;99.90
22635;DHT22;11484;50.858;4.384;2023-08-31T04:35:30;14.70;99.90
22635;DHT22;11484;50.858;4.384;2023-08-31T04:37:57;14.70;99.90
22635;DHT22;11484;50.858;4.384;2023-08-31T04:40:22;14.70;99.90
22635;DHT22;11484;50.858;4.384;2023-08-31T04:42:48;14.70;99.90
22635;DHT22;11484;50.858;4.384;2023-08-31T04:45:14;14.70;99.90
22635;DHT22;11484;50.858;4.384;2023-08-31T04:47:39;14.60;99.90
22635;DHT22;11484;50.858;4.384;2023-08-31T04:50:06;14.60;99.90
22635;DHT22;11484;50.858;4.384;2023-08-31T04:52:32;14.60;99.90
22635;DHT22;11484;50.858;4.384;2023-08-31T04:54:58;14.60;99.90
22635;DHT22;11484;50.858;4.384;2023-08-31T04:57:23;14.70;99.90
22635;DHT22;11484;50.858;4.384;2023-08-31T04:59:49;14.60;99.90
22635;DHT22;11484;50.858;4.384;2023-08-31T05:02:15;14.60;99.90
22635;DHT22;11484;50.858;4.384;2023-08-31T05:04:41;14.60;99.90
22635;DHT22;11484;50.858;4.384;2023-08-31T05:07:06;14.60;99.90
22635;DHT22;11484;50.858;4.384;2023-08-31T05:09:33;14.60;99.90
22635;DHT22;11484;50.858;4.384;2023-08-31T05:12:01;14.60;99.90
22635;DHT22;11484;50.858;4.384;2023-08-31T05:14:28;14.60;99.90
22635;DHT22;11484;50.858;4.384;2023-08-31T05:16:54;14.60;99.90
22635;DHT22;11484;50.858;4.384;2023-08-31T05:19:19;14.60;99.90
22635;DHT22;11484;50.858;4.384;2023-08-31T05:21:45;14.70;99.90
22635;DHT22;11484;50.858;4.384;2023-08-31T05:24:11;14.70;99.90
22635;DHT22;11484;50.858;4.384;2023-08-31T05:26:37;14.60;99.90
22635;DHT22;11484;50.858;4.384;2023-08-31T05:29:02;14.70;99.90
22635;DHT22;11484;50.858;4.384;2023-08-31T05:31:31;14.70;99.90
22635;DHT22;11484;50.858;4.384;2023-08-31T05:33:57;14.70;99.90
22635;DHT22;11484;50.858;4.384;2023-08-31T05:36:23;14.80;99.90
22635;DHT22;11484;50.858;4.384;2023-08-31T05:38:50;14.90;99.90
22635;DHT22;11484;50.858;4.384;2023-08-31T05:41:16;14.80;99.90
22635;DHT22;11484;50.858;4.384;2023-08-31T05:43:42;14.80;99.90
22635;DHT22;11484;50.858;4.384;2023-08-31T05:46:08;14.80;99.90
22635;DHT22;11484;50.858;4.384;2023-08-31T05:48:34;14.80;99.90
22635;DHT22;11484;50.858;4.384;2023-08-31T05:51:01;14.80;99.90
22635;DHT22;11484;50.858;4.384;2023-08-31T05:53:27;14.80;99.90
22635;DHT22;11484;50.858;4.384;2023-08-31T05:55:54;14.90;99.90
22635;DHT22;11484;50.858;4.384;2023-08-31T05:58:20;14.90;99.90
22635;DHT22;11484;50.858;4.384;2023-08-31T06:00:46;15.00;99.90
22635;DHT22;11484;50.858;4.384;2023-08-31T06:03:11;15.00;99.90
22635;DHT22;11484;50.858;4.384;2023-08-31T06:05:37;15.00;99.90
22635;DHT22;11484;50.858;4.384;2023-08-31T06:08:04;15.10;99.90
22635;DHT22;11484;50.858;4.384;2023-08-31T06:10:30;15.10;99.90
22635;DHT22;11484;50.858;4.384;2023-08-31T06:12:55;15.10;99.90
22635;DHT22;11484;50.858;4.384;2023-08-31T06:15:21;15.20;99.90
22635;DHT22;11484;50.858;4.384;2023-08-31T06:17:46;15.20;99.90
22635;DHT22;11484;50.858;4.384;2023-08-31T06:20:13;15.20;99.90
22635;DHT22;11484;50.858;4.384;2023-08-31T06:22:38;15.20;99.90
22635;DHT22;11484;50.858;4.384;2023-08-31T06:25:04;15.40;99.90
22635;DHT22;11484;50.858;4.384;2023-08-31T06:27:31;15.50;99.90
22635;DHT22;11484;50.858;4.384;2023-08-31T06:29:56;15.50;99.90
22635;DHT22;11484;50.858;4.384;2023-08-31T06:32:22;15.60;99.90
22635;DHT22;11484;50.858;4.384;2023-08-31T06:34:48;15.50;99.90
22635;DHT22;11484;50.858;4.384;2023-08-31T06:37:14;15.60;99.90
22635;DHT22;11484;50.858;4.384;2023-08-31T06:39:40;15.70;99.90
22635;DHT22;11484;50.858;4.384;2023-08-31T06:42:06;15.90;99.90
22635;DHT22;11484;50.858;4.384;2023-08-31T06:44:32;16.30;99.90
22635;DHT22;11484;50.858;4.384;2023-08-31T06:46:58;17.10;99.90
22635;DHT22;11484;50.858;4.384;2023-08-31T06:49:24;18.10;99.90
22635;DHT22;11484;50.858;4.384;2023-08-31T06:51:50;19.20;99.90
22635;DHT22;11484;50.858;4.384;2023-08-31T06:54:15;20.30;99.90
22635;DHT22;11484;50.858;4.384;2023-08-31T06:56:41;21.20;99.90
22635;DHT22;11484;50.858;4.384;2023-08-31T06:59:07;21.80;99.90
22635;DHT22;11484;50.858;4.384;2023-08-31T07:01:34;22.40;99.90
22635;DHT22;11484;50.858;4.384;2023-08-31T07:04:00;22.90;99.90
22635;DHT22;11484;50.858;4.384;2023-08-31T07:06:25;23.50;99.90
22635;DHT22;11484;50.858;4.384;2023-08-31T07:08:51;24.00;99.90
22635;DHT22;11484;50.858;4.384;2023-08-31T07:11:17;24.50;99.90
22635;DHT22;11484;50.858;4.384;2023-08-31T07:13:43;24.80;99.00
22635;DHT22;11484;50.858;4.384;2023-08-31T07:16:09;25.20;98.10
22635;DHT22;11484;50.858;4.384;2023-08-31T07:18:36;25.30;97.20
22635;DHT22;11484;50.858;4.384;2023-08-31T07:21:02;25.00;97.10
22635;DHT22;11484;50.858;4.384;2023-08-31T07:23:30;24.50;97.30
22635;DHT22;11484;50.858;4.384;2023-08-31T07:25:58;24.20;98.50
22635;DHT22;11484;50.858;4.384;2023-08-31T07:28:26;24.20;98.10
22635;DHT22;11484;50.858;4.384;2023-08-31T07:31:05;24.30;97.60
22635;DHT22;11484;50.858;4.384;2023-08-31T07:33:31;24.20;98.00
22635;DHT22;11484;50.858;4.384;2023-08-31T07:35:58;23.80;98.50
22635;DHT22;11484;50.858;4.384;2023-08-31T07:38:25;23.30;99.50
22635;DHT22;11484;50.858;4.384;2023-08-31T07:40:51;22.80;99.90
22635;DHT22;11484;50.858;4.384;2023-08-31T07:43:17;22.70;99.90
22635;DHT22;11484;50.858;4.384;2023-08-31T07:45:42;22.70;99.90
22635;DHT22;11484;50.858;4.384;2023-08-31T07:48:08;22.90;99.90
22635;DHT22;11484;50.858;4.384;2023-08-31T07:50:34;23.00;99.90
22635;DHT22;11484;50.858;4.384;2023-08-31T07:53:00;23.20;99.90
22635;DHT22;11484;50.858;4.384;2023-08-31T07:55:25;23.30;99.90
22635;DHT22;11484;50.858;4.384;2023-08-31T07:57:51;23.30;99.90
22635;DHT22;11484;50.858;4.384;2023-08-31T08:00:17;22.80;99.90
22635;DHT22;11484;50.858;4.384;2023-08-31T08:02:45;22.60;99.90
22635;DHT22;11484;50.858;4.384;2023-08-31T08:05:11;22.40;99.90
22635;DHT22;11484;50.858;4.384;2023-08-31T08:07:37;22.40;99.90
22635;DHT22;11484;50.858;4.384;2023-08-31T08:10:03;22.40;99.90
22635;DHT22;11484;50.858;4.384;2023-08-31T08:12:37;22.20;99.90
22635;DHT22;11484;50.858;4.384;2023-08-31T08:15:05;22.10;99.90
22635;DHT22;11484;50.858;4.384;2023-08-31T08:17:31;22.30;99.90
22635;DHT22;11484;50.858;4.384;2023-08-31T08:19:56;22.70;99.90
22635;DHT22;11484;50.858;4.384;2023-08-31T08:22:24;23.30;99.90
22635;DHT22;11484;50.858;4.384;2023-08-31T08:24:49;23.90;99.60
22635;DHT22;11484;50.858;4.384;2023-08-31T08:27:15;24.50;98.80
22635;DHT22;11484;50.858;4.384;2023-08-31T08:29:43;24.80;97.90
22635;DHT22;11484;50.858;4.384;2023-08-31T08:32:09;24.70;97.70
22635;DHT22;11484;50.858;4.384;2023-08-31T08:34:34;24.80;98.10
22635;DHT22;11484;50.858;4.384;2023-08-31T08:37:00;24.60;98.00
22635;DHT22;11484;50.858;4.384;2023-08-31T08:39:26;24.70;97.90
22635;DHT22;11484;50.858;4.384;2023-08-31T08:41:54;25.00;97.50
22635;DHT22;11484;50.858;4.384;2023-08-31T08:44:29;25.30;96.80
22635;DHT22;11484;50.858;4.384;2023-08-31T08:46:58;25.80;95.90
22635;DHT22;11484;50.858;4.384;2023-08-31T08:49:27;25.60;96.00
22635;DHT22;11484;50.858;4.384;2023-08-31T08:51:53;25.30;96.10
22635;DHT22;11484;50.858;4.384;2023-08-31T08:54:20;25.60;96.00
22635;DHT22;11484;50.858;4.384;2023-08-31T08:56:47;26.10;95.30
22635;DHT22;11484;50.858;4.384;2023-08-31T08:59:13;26.90;94.20
22635;DHT22;11484;50.858;4.384;2023-08-31T09:01:39;27.10;93.60
22635;DHT22;11484;50.858;4.384;2023-08-31T09:04:05;27.00;93.40
22635;DHT22;11484;50.858;4.384;2023-08-31T09:06:32;26.80;93.20
22635;DHT22;11484;50.858;4.384;2023-08-31T09:08:58;26.50;93.20
22635;DHT22;11484;50.858;4.384;2023-08-31T09:11:24;26.50;93.20
22635;DHT22;11484;50.858;4.384;2023-08-31T09:13:51;26.30;93.20
22635;DHT22;11484;50.858;4.384;2023-08-31T09:16:30;26.10;93.40
22635;DHT22;11484;50.858;4.384;2023-08-31T09:18:56;25.80;93.80
22635;DHT22;11484;50.858;4.384;2023-08-31T09:21:28;25.50;94.00
22635;DHT22;11484;50.858;4.384;2023-08-31T09:24:00;25.40;94.40
22635;DHT22;11484;50.858;4.384;2023-08-31T09:26:25;25.40;94.60
22635;DHT22;11484;50.858;4.384;2023-08-31T09:28:52;25.50;94.30
22635;DHT22;11484;50.858;4.384;2023-08-31T09:31:17;26.00;94.30
22635;DHT22;11484;50.858;4.384;2023-08-31T09:33:52;26.30;93.70
22635;DHT22;11484;50.858;4.384;2023-08-31T09:36:20;26.20;93.70
22635;DHT22;11484;50.858;4.384;2023-08-31T09:38:47;26.10;93.30
22635;DHT22;11484;50.858;4.384;2023-08-31T09:41:13;25.90;93.10
22635;DHT22;11484;50.858;4.384;2023-08-31T09:43:41;25.90;93.10
22635;DHT22;11484;50.858;4.384;2023-08-31T09:46:07;26.20;92.90
22635;DHT22;11484;50.858;4.384;2023-08-31T09:48:35;26.50;92.70
22635;DHT22;11484;50.858;4.384;2023-08-31T09:51:04;27.10;92.30
22635;DHT22;11484;50.858;4.384;2023-08-31T09:53:31;27.10;92.10
22635;DHT22;11484;50.858;4.384;2023-08-31T09:55:57;27.50;91.60
22635;DHT22;11484;50.858;4.384;2023-08-31T09:58:23;27.90;91.00
22635;DHT22;11484;50.858;4.384;2023-08-31T10:00:51;28.00;91.00
22635;DHT22;11484;50.858;4.384;2023-08-31T10:03:20;27.80;90.70
22635;DHT22;11484;50.858;4.384;2023-08-31T10:05:48;27.20;90.80
22635;DHT22;11484;50.858;4.384;2023-08-31T10:08:15;27.20;90.90
22635;DHT22;11484;50.858;4.384;2023-08-31T10:10:41;26.90;91.20
22635;DHT22;11484;50.858;4.384;2023-08-31T10:13:10;26.60;91.50
22635;DHT22;11484;50.858;4.384;2023-08-31T10:15:39;26.50;91.30
22635;DHT22;11484;50.858;4.384;2023-08-31T10:18:07;26.10;91.80
22635;DHT22;11484;50.858;4.384;2023-08-31T10:20:33;25.70;92.10
22635;DHT22;11484;50.858;4.384;2023-08-31T10:23:05;25.50;92.60
22635;DHT22;11484;50.858;4.384;2023-08-31T10:31:17;24.70;93.90
22635;DHT22;11484;50.858;4.384;2023-08-31T10:33:54;24.30;94.00
22635;DHT22;11484;50.858;4.384;2023-08-31T10:36:21;24.00;94.50
22635;DHT22;11484;50.858;4.384;2023-08-31T10:41:22;23.60;95.10
22635;DHT22;11484;50.858;4.384;2023-08-31T10:43:49;23.30;95.30
22635;DHT22;11484;50.858;4.384;2023-08-31T10:46:43;23.10;95.40
22635;DHT22;11484;50.858;4.384;2023-08-31T10:52:19;23.60;96.20
22635;DHT22;11484;50.858;4.384;2023-08-31T10:54:46;23.40;96.30
22635;DHT22;11484;50.858;4.384;2023-08-31T10:57:12;23.40;96.70
22635;DHT22;11484;50.858;4.384;2023-08-31T11:02:10;23.50;95.90
22635;DHT22;11484;50.858;4.384;2023-08-31T11:04:55;23.60;95.70
22635;DHT22;11484;50.858;4.384;2023-08-31T11:07:26;23.60;95.60
22635;DHT22;11484;50.858;4.384;2023-08-31T11:10:03;23.60;96.10
22635;DHT22;11484;50.858;4.384;2023-08-31T11:12:32;23.70;95.50
22635;DHT22;11484;50.858;4.384;2023-08-31T11:14:57;23.60;95.90
22635;DHT22;11484;50.858;4.384;2023-08-31T11:17:24;23.40;95.00
22635;DHT22;11484;50.858;4.384;2023-08-31T11:19:50;23.40;95.20
22635;DHT22;11484;50.858;4.384;2023-08-31T11:22:15;23.30;95.00
22635;DHT22;11484;50.858;4.384;2023-08-31T11:24:41;23.10;95.20
22635;DHT22;11484;50.858;4.384;2023-08-31T11:27:08;23.20;95.30
22635;DHT22;11484;50.858;4.384;2023-08-31T11:29:37;23.40;95.20
22635;DHT22;11484;50.858;4.384;2023-08-31T11:32:03;23.40;95.10
22635;DHT22;11484;50.858;4.384;2023-08-31T11:34:29;23.30;95.40
22635;DHT22;11484;50.858;4.384;2023-08-31T11:36:54;23.10;95.70
22635;DHT22;11484;50.858;4.384;2023-08-31T11:39:20;23.20;95.20
22635;DHT22;11484;50.858;4.384;2023-08-31T11:41:46;23.20;95.10
22635;DHT22;11484;50.858;4.384;2023-08-31T11:44:14;23.10;94.90
22635;DHT22;11484;50.858;4.384;2023-08-31T11:46:45;23.00;95.00
22635;DHT22;11484;50.858;4.384;2023-08-31T11:49:14;22.80;95.50
22635;DHT22;11484;50.858;4.384;2023-08-31T11:51:40;22.90;95.90
22635;DHT22;11484;50.858;4.384;2023-08-31T11:54:07;22.90;95.20
22635;DHT22;11484;50.858;4.384;2023-08-31T11:56:41;22.90;94.00
22635;DHT22;11484;50.858;4.384;2023-08-31T11:59:11;22.80;93.70
22635;DHT22;11484;50.858;4.384;2023-08-31T12:01:38;22.70;93.20
22635;DHT22;11484;50.858;4.384;2023-08-31T12:04:16;22.60;93.60
22635;DHT22;11484;50.858;4.384;2023-08-31T12:06:46;22.50;94.20
22635;DHT22;11484;50.858;4.384;2023-08-31T12:09:12;22.50;94.90
22635;DHT22;11484;50.858;4.384;2023-08-31T12:11:38;22.30;94.80
22635;DHT22;11484;50.858;4.384;2023-08-31T12:14:21;22.30;94.40
22635;DHT22;11484;50.858;4.384;2023-08-31T12:16:47;22.20;94.90
22635;DHT22;11484;50.858;4.384;2023-08-31T12:19:13;22.40;95.20
22635;DHT22;11484;50.858;4.384;2023-08-31T12:21:41;22.20;95.30
22635;DHT22;11484;50.858;4.384;2023-08-31T12:24:07;22.30;95.40
22635;DHT22;11484;50.858;4.384;2023-08-31T12:26:33;22.40;95.10
22635;DHT22;11484;50.858;4.384;2023-08-31T12:29:00;22.50;95.30
22635;DHT22;11484;50.858;4.384;2023-08-31T12:31:26;22.50;95.30
22635;DHT22;11484;50.858;4.384;2023-08-31T12:33:52;22.30;95.90
22635;DHT22;11484;50.858;4.384;2023-08-31T12:36:17;22.30;95.80
22635;DHT22;11484;50.858;4.384;2023-08-31T12:38:43;22.20;95.90
22635;DHT22;11484;50.858;4.384;2023-08-31T12:41:09;22.20;96.10
22635;DHT22;11484;50.858;4.384;2023-08-31T12:43:35;22.20;96.30
22635;DHT22;11484;50.858;4.384;2023-08-31T12:46:01;22.20;96.00
22635;DHT22;11484;50.858;4.384;2023-08-31T12:48:28;22.10;95.50
22635;DHT22;11484;50.858;4.384;2023-08-31T12:50:53;22.20;95.40
22635;DHT22;11484;50.858;4.384;2023-08-31T12:53:23;22.20;95.60
22635;DHT22;11484;50.858;4.384;2023-08-31T12:55:50;22.30;95.00
22635;DHT22;11484;50.858;4.384;2023-08-31T12:58:16;22.20;95.10
22635;DHT22;11484;50.858;4.384;2023-08-31T13:00:42;22.20;95.40
22635;DHT22;11484;50.858;4.384;2023-08-31T13:03:14;22.30;94.70
22635;DHT22;11484;50.858;4.384;2023-08-31T13:05:41;22.50;94.70
22635;DHT22;11484;50.858;4.384;2023-08-31T13:08:08;22.60;94.40
22635;DHT22;11484;50.858;4.384;2023-08-31T13:10:37;22.50;94.00
22635;DHT22;11484;50.858;4.384;2023-08-31T13:13:02;22.50;93.00
22635;DHT22;11484;50.858;4.384;2023-08-31T13:15:30;22.50;92.60
22635;DHT22;11484;50.858;4.384;2023-08-31T13:17:58;22.50;92.40
22635;DHT22;11484;50.858;4.384;2023-08-31T13:20:23;22.50;92.50
22635;DHT22;11484;50.858;4.384;2023-08-31T13:22:49;22.50;92.50
22635;DHT22;11484;50.858;4.384;2023-08-31T13:25:15;22.50;92.30
22635;DHT22;11484;50.858;4.384;2023-08-31T13:27:41;22.50;92.40
22635;DHT22;11484;50.858;4.384;2023-08-31T13:30:07;22.60;92.30
22635;DHT22;11484;50.858;4.384;2023-08-31T13:32:34;22.60;92.40
22635;DHT22;11484;50.858;4.384;2023-08-31T13:35:00;22.70;92.50
22635;DHT22;11484;50.858;4.384;2023-08-31T13:37:26;22.80;92.50
22635;DHT22;11484;50.858;4.384;2023-08-31T13:39:52;22.80;92.40
22635;DHT22;11484;50.858;4.384;2023-08-31T13:42:20;22.80;92.70
22635;DHT22;11484;50.858;4.384;2023-08-31T13:44:46;22.80;92.10
22635;DHT22;11484;50.858;4.384;2023-08-31T13:47:12;22.80;92.30
22635;DHT22;11484;50.858;4.384;2023-08-31T13:49:37;22.70;92.50
22635;DHT22;11484;50.858;4.384;2023-08-31T13:52:03;22.70;92.50
22635;DHT22;11484;50.858;4.384;2023-08-31T13:54:33;22.50;92.80
22635;DHT22;11484;50.858;4.384;2023-08-31T13:56:59;22.30;92.80
22635;DHT22;11484;50.858;4.384;2023-08-31T13:59:25;22.30;92.90
22635;DHT22;11484;50.858;4.384;2023-08-31T14:01:56;22.20;92.90
22635;DHT22;11484;50.858;4.384;2023-08-31T14:04:22;22.20;93.10
22635;DHT22;11484;50.858;4.384;2023-08-31T14:06:47;22.40;93.10
22635;DHT22;11484;50.858;4.384;2023-08-31T14:09:14;22.30;93.60
22635;DHT22;11484;50.858;4.384;2023-08-31T14:11:40;22.10;93.40
22635;DHT22;11484;50.858;4.384;2023-08-31T14:14:06;22.10;93.60
22635;DHT22;11484;50.858;4.384;2023-08-31T14:16:37;22.10;93.60
22635;DHT22;11484;50.858;4.384;2023-08-31T14:19:05;22.20;93.40
22635;DHT22;11484;50.858;4.384;2023-08-31T14:21:37;22.30;93.70
22635;DHT22;11484;50.858;4.384;2023-08-31T14:24:04;22.20;93.60
22635;DHT22;11484;50.858;4.384;2023-08-31T14:26:30;22.30;93.80
22635;DHT22;11484;50.858;4.384;2023-08-31T14:28:56;22.30;93.50
22635;DHT22;11484;50.858;4.384;2023-08-31T14:31:22;22.30;93.60
22635;DHT22;11484;50.858;4.384;2023-08-31T14:33:48;22.20;93.80
22635;DHT22;11484;50.858;4.384;2023-08-31T14:36:15;22.20;93.80
22635;DHT22;11484;50.858;4.384;2023-08-31T14:38:41;22.30;94.10
22635;DHT22;11484;50.858;4.384;2023-08-31T14:41:07;22.30;94.10
22635;DHT22;11484;50.858;4.384;2023-08-31T14:43:33;22.30;94.20
22635;DHT22;11484;50.858;4.384;2023-08-31T14:46:00;22.20;94.60
22635;DHT22;11484;50.858;4.384;2023-08-31T14:48:30;22.20;94.70
22635;DHT22;11484;50.858;4.384;2023-08-31T14:50:57;22.00;94.90
22635;DHT22;11484;50.858;4.384;2023-08-31T14:53:24;21.90;94.80
22635;DHT22;11484;50.858;4.384;2023-08-31T14:55:51;22.00;95.00
22635;DHT22;11484;50.858;4.384;2023-08-31T14:58:17;21.80;94.60
22635;DHT22;11484;50.858;4.384;2023-08-31T15:00:43;21.60;94.80
22635;DHT22;11484;50.858;4.384;2023-08-31T15:03:10;21.70;95.20
22635;DHT22;11484;50.858;4.384;2023-08-31T15:05:36;21.70;95.00
22635;DHT22;11484;50.858;4.384;2023-08-31T15:08:04;21.70;95.00
22635;DHT22;11484;50.858;4.384;2023-08-31T15:10:30;21.70;95.00
22635;DHT22;11484;50.858;4.384;2023-08-31T15:12:58;21.60;94.90
22635;DHT22;11484;50.858;4.384;2023-08-31T15:15:28;21.60;95.20
22635;DHT22;11484;50.858;4.384;2023-08-31T15:17:54;21.70;94.70
22635;DHT22;11484;50.858;4.384;2023-08-31T15:20:20;21.80;94.60
22635;DHT22;11484;50.858;4.384;2023-08-31T15:22:46;21.60;94.10
22635;DHT22;11484;50.858;4.384;2023-08-31T15:25:12;21.60;94.90
22635;DHT22;11484;50.858;4.384;2023-08-31T15:27:38;21.60;95.00
22635;DHT22;11484;50.858;4.384;2023-08-31T15:30:05;21.50;95.30
22635;DHT22;11484;50.858;4.384;2023-08-31T15:32:33;21.50;95.60
22635;DHT22;11484;50.858;4.384;2023-08-31T15:34:59;21.60;95.30
22635;DHT22;11484;50.858;4.384;2023-08-31T15:37:25;21.50;95.60
22635;DHT22;11484;50.858;4.384;2023-08-31T15:39:53;21.30;95.70
22635;DHT22;11484;50.858;4.384;2023-08-31T15:42:22;21.30;96.20
22635;DHT22;11484;50.858;4.384;2023-08-31T15:44:51;21.30;96.40